Time;durP1;ratioP1;P1;durP2;ratioP2;P2;SDS_P1;SDS_P2;PMS_P1;PMS_P2;Temp;Humidity;BMP_temperature;BMP_pressure;BME280_temperature;BME280_humidity;BME280_pressure;Samples;Min_cycle;Max_cycle;Signal;HPM_P1;HPM_P2
2021/04/26 00:00:06;;;;;;;8.95;5.50;;;;;;;8.37;63.09;97065.28;1698807;84;21168;-78
2021/04/26 00:02:37;;;;;;;9.03;6.75;;;;;;;8.40;63.24;97065.05;1670105;84;21145;-78
2021/04/26 00:05:06;;;;;;;7.80;6.83;;;;;;;8.34;63.05;97056.30;1711680;84;21566;-79
2021/04/26 00:07:34;;;;;;;8.78;5.70;;;;;;;8.40;62.66;97066.36;1690979;83;21547;-78
2021/04/26 00:10:02;;;;;;;11.95;7.72;;;;;;;8.44;62.24;97068.31;1712037;83;21141;-78
2021/04/26 00:12:29;;;;;;;8.65;6.05;;;;;;;8.42;62.80;97074.15;1675419;83;21232;-78
2021/04/26 00:14:59;;;;;;;10.75;6.55;;;;;;;8.41;62.06;97083.80;1667375;86;21314;-80
2021/04/26 00:17:27;;;;;;;9.40;6.97;;;;;;;8.42;61.87;97085.48;1669365;86;21153;-78
2021/04/26 00:19:55;;;;;;;5.85;4.12;;;;;;;8.40;62.01;97087.38;1669196;86;21204;-78
2021/04/26 00:22:22;;;;;;;9.78;6.87;;;;;;;8.40;63.25;97083.43;1669404;86;21613;-79
2021/04/26 00:24:50;;;;;;;8.30;6.85;;;;;;;8.31;62.07;97084.09;1669401;84;21153;-77
2021/04/26 00:27:20;;;;;;;10.48;6.65;;;;;;;8.25;62.89;97090.64;1667479;84;21330;-77
2021/04/26 00:29:47;;;;;;;9.05;6.33;;;;;;;8.21;62.16;97090.97;1701437;84;21129;-78
2021/04/26 00:32:17;;;;;;;7.72;6.10;;;;;;;8.19;62.07;97094.17;1711271;83;21210;-79
2021/04/26 00:34:45;;;;;;;9.35;6.33;;;;;;;8.15;62.57;97094.02;1712204;83;21574;-78
2021/04/26 00:37:14;;;;;;;12.30;7.95;;;;;;;8.11;61.86;97098.19;1711404;84;21152;-77
2021/04/26 00:39:41;;;;;;;6.92;5.80;;;;;;;8.05;62.39;97091.20;1712004;83;21172;-79
2021/04/26 00:42:09;;;;;;;10.78;5.83;;;;;;;8.05;62.02;97105.64;1712200;84;21602;-77
2021/04/26 00:44:36;;;;;;;7.90;5.92;;;;;;;8.04;61.91;97095.59;1712245;84;21144;-79
2021/04/26 00:47:04;;;;;;;8.25;5.92;;;;;;;8.06;61.57;97092.89;1706061;83;21593;-78
2021/04/26 00:49:31;;;;;;;11.53;5.92;;;;;;;8.07;61.62;97096.70;1696508;85;21124;-79
2021/04/26 00:51:58;;;;;;;7.78;6.62;;;;;;;8.07;61.46;97091.45;1671264;85;21163;-78
2021/04/26 00:54:26;;;;;;;8.33;5.67;;;;;;;8.10;61.74;97104.84;1697011;83;21293;-78
2021/04/26 00:56:53;;;;;;;8.98;7.17;;;;;;;8.08;61.40;97106.27;1696504;83;21250;-79
2021/04/26 00:59:22;;;;;;;8.98;6.92;;;;;;;8.11;61.37;97110.45;1669677;85;21156;-78
2021/04/26 01:01:49;;;;;;;9.15;6.97;;;;;;;8.11;61.29;97106.52;1696616;85;21155;-78
2021/04/26 01:04:19;;;;;;;9.63;6.72;;;;;;;8.12;61.05;97109.02;1697562;83;21140;-78
2021/04/26 01:06:46;;;;;;;8.68;6.78;;;;;;;8.11;60.85;97111.77;1711781;83;21172;-78
2021/04/26 01:09:14;;;;;;;12.25;6.25;;;;;;;8.11;60.85;97111.77;1724978;83;21151;-79
2021/04/26 01:12:11;;;;;;;8.55;6.25;;;;;;;8.09;61.14;97110.57;1725388;82;21274;-78
2021/04/26 01:14:46;;;;;;;13.55;7.03;;;;;;;8.09;61.14;97110.57;1725434;83;21168;-78
2021/04/26 01:17:25;;;;;;;10.08;6.03;;;;;;;8.02;61.24;97101.45;1725657;83;21137;-77
2021/04/26 01:20:17;;;;;;;8.58;5.92;;;;;;;8.06;61.17;97116.03;1701172;83;21297;-78
2021/04/26 01:23:34;;;;;;;7.30;5.03;;;;;;;8.05;61.75;97120.08;1696871;83;21152;-78
2021/04/26 01:26:04;;;;;;;8.45;5.50;;;;;;;8.00;61.53;97121.72;1696612;85;21309;-77
2021/04/26 01:29:03;;;;;;;7.70;5.70;;;;;;;7.92;61.03;97123.55;1697286;83;21275;-78
2021/04/26 01:31:36;;;;;;;10.03;5.80;;;;;;;7.92;61.03;97123.55;1713392;83;21262;-78
2021/04/26 01:34:13;;;;;;;8.25;5.20;;;;;;;8.01;61.12;97122.09;1821504;79;22490;-78
2021/04/26 01:37:02;;;;;;;8.13;6.53;;;;;;;7.97;61.51;97121.92;1794770;80;21246;-78
2021/04/26 01:39:31;;;;;;;9.88;6.45;;;;;;;7.95;60.95;97123.34;1778636;80;21280;-76
2021/04/26 01:42:02;;;;;;;9.93;6.60;;;;;;;7.88;60.59;97123.41;1763581;81;21143;-78
2021/04/26 01:44:31;;;;;;;11.35;6.33;;;;;;;7.75;60.24;97123.88;1733850;81;21167;-79
2021/04/26 01:47:00;;;;;;;8.48;6.80;;;;;;;7.64;60.17;97123.30;1763701;78;21297;-79
2021/04/26 01:49:29;;;;;;;9.43;6.92;;;;;;;7.55;60.20;97118.19;1744093;81;21136;-78
2021/04/26 01:51:57;;;;;;;8.98;6.22;;;;;;;7.52;60.14;97123.63;1763185;81;21101;-78
2021/04/26 01:54:28;;;;;;;12.33;7.15;;;;;;;7.49;60.77;97123.86;1763213;81;21573;-78
2021/04/26 01:56:56;;;;;;;9.28;6.42;;;;;;;7.47;60.02;97120.50;1763410;81;21156;-79
2021/04/26 01:59:26;;;;;;;9.63;6.60;;;;;;;7.32;59.94;97106.63;1770374;78;21135;-76
2021/04/26 02:01:57;;;;;;;9.05;6.65;;;;;;;7.26;60.13;97123.61;1794403;80;21306;-76
2021/04/26 02:04:32;;;;;;;7.58;6.30;;;;;;;7.24;59.96;97125.97;1794007;80;21093;-79
2021/04/26 02:07:02;;;;;;;9.15;6.75;;;;;;;7.20;60.05;97126.64;1792915;80;21278;-79
2021/04/26 02:09:38;;;;;;;10.25;6.90;;;;;;;7.20;60.05;97126.64;1794378;80;21159;-79
2021/04/26 02:12:14;;;;;;;12.70;6.92;;;;;;;7.16;59.82;97122.08;1773199;80;21136;-78
2021/04/26 02:14:43;;;;;;;8.70;6.42;;;;;;;7.11;59.79;97127.25;1763437;81;21151;-78
2021/04/26 02:17:13;;;;;;;8.18;6.33;;;;;;;7.04;59.96;97118.94;1763422;81;21178;-79
2021/04/26 02:19:42;;;;;;;9.00;6.62;;;;;;;6.87;59.94;97119.58;1768439;80;21131;-79
2021/04/26 02:22:11;;;;;;;9.35;6.83;;;;;;;6.87;59.94;97119.58;1794101;80;21269;-79
2021/04/26 02:24:55;;;;;;;12.58;7.80;;;;;;;6.82;59.76;97124.27;1794824;80;21297;-78
2021/04/26 02:27:27;;;;;;;7.83;7.03;;;;;;;6.74;60.82;97121.30;1794962;80;21238;-79
2021/04/26 02:29:56;;;;;;;10.95;7.15;;;;;;;6.66;60.25;97123.58;1794804;80;21297;-78
2021/04/26 02:32:31;;;;;;;11.18;7.17;;;;;;;6.62;60.24;97123.42;1792869;80;21251;-78
2021/04/26 02:35:37;;;;;;;13.53;9.05;;;;;;;6.55;60.16;97126.41;1781246;81;21120;-78
2021/04/26 02:38:12;;;;;;;10.95;6.95;;;;;;;6.45;60.55;97132.33;1729682;82;21119;-78
2021/04/26 02:40:51;;;;;;;9.03;7.42;;;;;;;6.34;60.71;97127.78;1750517;82;21290;-78
2021/04/26 02:43:21;;;;;;;10.35;7.20;;;;;;;6.24;60.97;97129.66;1743845;82;21264;-78
2021/04/26 02:45:53;;;;;;;9.45;7.17;;;;;;;6.14;60.74;97128.55;1687380;85;21152;-78
2021/04/26 02:48:22;;;;;;;10.68;7.45;;;;;;;6.05;60.91;97127.81;1735113;83;21128;-78
2021/04/26 02:50:55;;;;;;;8.08;6.45;;;;;;;5.97;61.10;97130.85;1712325;84;21278;-79
2021/04/26 02:53:26;;;;;;;11.70;6.83;;;;;;;5.88;61.03;97130.97;1780146;81;21180;-78
2021/04/26 02:56:05;;;;;;;9.63;7.22;;;;;;;5.81;61.18;97128.32;1757408;81;21132;-79
2021/04/26 02:58:36;;;;;;;8.03;6.78;;;;;;;5.74;62.23;97125.26;1720010;82;21728;-80
2021/04/26 03:01:09;;;;;;;9.48;5.55;;;;;;;5.68;61.29;97126.09;1684854;85;21734;-79
2021/04/26 03:03:44;;;;;;;9.40;6.85;;;;;;;5.55;63.75;97130.73;1719746;82;21148;-78
2021/04/26 03:06:15;;;;;;;10.80;7.37;;;;;;;5.45;62.57;97126.53;1685326;85;21144;-78
2021/04/26 03:09:03;;;;;;;9.73;7.37;;;;;;;5.41;62.61;97125.02;1719827;83;21267;-78
2021/04/26 03:11:32;;;;;;;9.63;7.10;;;;;;;5.37;63.08;97127.89;1694395;82;21542;-79
2021/04/26 03:14:01;;;;;;;11.95;6.92;;;;;;;5.35;63.13;97131.92;1780075;81;21139;-78
2021/04/26 03:16:30;;;;;;;10.45;6.83;;;;;;;5.35;63.07;97138.91;1780284;81;21152;-78
2021/04/26 03:19:01;;;;;;;15.90;7.28;;;;;;;5.39;64.09;97131.27;1780150;81;21132;-78
2021/04/26 03:21:29;;;;;;;9.88;7.22;;;;;;;5.42;63.49;97137.64;1779997;81;21278;-78
2021/04/26 03:23:57;;;;;;;11.28;7.78;;;;;;;5.47;63.66;97148.65;1780605;81;21132;-77
2021/04/26 03:26:25;;;;;;;10.38;7.70;;;;;;;5.50;63.68;97151.09;1770102;81;21370;-77
2021/04/26 03:28:53;;;;;;;13.13;7.75;;;;;;;5.52;63.88;97142.67;1745358;82;21191;-80
2021/04/26 03:31:21;;;;;;;12.65;7.90;;;;;;;5.54;63.87;97142.13;1728945;82;21179;-78
2021/04/26 03:34:10;;;;;;;12.03;7.78;;;;;;;5.65;63.74;97140.20;1815696;77;22105;-79
2021/04/26 03:36:39;;;;;;;12.33;7.78;;;;;;;5.65;63.67;97145.42;1799758;80;21190;-79
2021/04/26 03:39:09;;;;;;;11.95;7.83;;;;;;;5.72;63.47;97146.73;1800532;78;21179;-78
2021/04/26 03:41:38;;;;;;;11.95;8.15;;;;;;;5.73;63.37;97147.11;1787408;78;21158;-77
2021/04/26 03:44:14;;;;;;;10.95;7.53;;;;;;;5.74;63.18;97142.70;1796938;80;21152;-79
2021/04/26 03:46:59;;;;;;;9.30;8.00;;;;;;;5.74;62.91;97148.80;1800868;79;21597;-78
2021/04/26 03:49:51;;;;;;;10.53;7.22;;;;;;;5.74;62.79;97154.03;1684290;77;21363;-78
2021/04/26 03:52:37;;;;;;;12.40;8.10;;;;;;;5.72;62.49;97155.89;1668750;84;21145;-78
2021/04/26 03:55:10;;;;;;;14.20;7.80;;;;;;;5.74;62.36;97166.25;1666810;86;21186;-78
2021/04/26 03:57:38;;;;;;;10.98;8.50;;;;;;;5.75;62.21;97165.32;1680215;84;21299;-79
2021/04/26 04:00:08;;;;;;;11.38;8.45;;;;;;;5.77;62.37;97164.29;1668181;86;21153;-79
2021/04/26 04:02:37;;;;;;;10.82;8.28;;;;;;;5.81;62.36;97177.20;1666398;85;21160;-78
2021/04/26 04:05:09;;;;;;;18.40;9.28;;;;;;;5.84;62.12;97176.55;1691645;84;21141;-78
2021/04/26 04:07:38;;;;;;;21.68;9.03;;;;;;;5.89;61.94;97174.95;1645754;84;21191;-78
2021/04/26 04:10:24;;;;;;;13.83;8.05;;;;;;;5.92;62.05;97176.92;1667432;85;21185;-78
2021/04/26 04:13:09;;;;;;;13.95;8.40;;;;;;;5.97;61.71;97186.28;1639699;87;21294;-78
2021/04/26 04:15:39;;;;;;;12.68;8.25;;;;;;;6.02;61.87;97189.48;1639393;87;21176;-79
2021/04/26 04:18:07;;;;;;;10.53;7.67;;;;;;;6.05;61.79;97201.08;1641680;86;21299;-78
2021/04/26 04:20:36;;;;;;;12.93;8.05;;;;;;;6.08;61.79;97195.19;1641167;86;21156;-79
2021/04/26 04:23:03;;;;;;;20.75;8.23;;;;;;;6.13;61.80;97194.05;1652606;86;21630;-78
2021/04/26 04:25:31;;;;;;;10.65;7.87;;;;;;;6.19;61.74;97196.31;1652625;86;21184;-79
2021/04/26 04:27:59;;;;;;;10.20;8.15;;;;;;;6.38;61.95;97194.26;1652433;87;21168;-79
2021/04/26 04:30:27;;;;;;;14.30;8.43;;;;;;;6.79;61.96;97192.60;1641054;87;21525;-79
2021/04/26 04:33:17;;;;;;;17.05;8.05;;;;;;;7.27;61.62;97193.46;1620718;87;21174;-79
2021/04/26 04:36:03;;;;;;;14.45;7.87;;;;;;;7.91;61.12;97193.22;1640941;87;21147;-76
2021/04/26 04:38:43;;;;;;;11.53;7.42;;;;;;;9.15;58.85;97193.78;1674297;85;21236;-79
2021/04/26 04:41:22;;;;;;;9.40;7.85;;;;;;;9.25;58.61;97194.79;1842435;77;22581;-79
2021/04/26 04:43:51;;;;;;;10.18;6.90;;;;;;;9.73;58.06;97193.91;1796973;78;21141;-77
2021/04/26 04:46:19;;;;;;;12.28;7.35;;;;;;;10.12;55.65;97198.88;1796440;80;21131;-78
2021/04/26 04:48:49;;;;;;;13.35;7.58;;;;;;;10.52;56.19;97203.73;1783765;77;21173;-76
2021/04/26 04:51:19;;;;;;;8.50;5.95;;;;;;;11.01;54.19;97201.63;1855955;77;21143;-77
2021/04/26 04:53:50;;;;;;;16.87;7.55;;;;;;;11.50;53.59;97209.98;1822795;78;21149;-80
2021/04/26 04:56:19;;;;;;;11.10;6.83;;;;;;;11.93;53.11;97209.53;1806503;78;21123;-78
2021/04/26 04:58:47;;;;;;;9.80;7.45;;;;;;;12.33;49.47;97209.30;1815589;78;21546;-80
2021/04/26 05:01:15;;;;;;;11.63;6.67;;;;;;;12.71;50.30;97217.55;1831447;77;21102;-78
2021/04/26 05:04:02;;;;;;;8.98;6.30;;;;;;;13.10;50.46;97216.31;1797654;78;21124;-80
2021/04/26 05:06:47;;;;;;;;;;;;;;;13.45;49.25;97227.41;1798124;80;21136;-79
2021/04/26 05:09:29;;;;;;;14.80;6.70;;;;;;;13.70;46.08;97232.14;1762206;78;20136;-79
2021/04/26 05:12:15;;;;;;;;;;;;;;;13.83;42.77;97236.34;1810329;78;21127;-78
2021/04/26 05:15:04;;;;;;;13.10;5.95;;;;;;;13.76;47.03;97239.20;1803381;78;20160;-79
2021/04/26 05:17:32;;;;;;;8.05;6.08;;;;;;;13.76;43.67;97238.70;1799532;78;21100;-78
2021/04/26 05:20:00;;;;;;;8.98;6.00;;;;;;;13.67;41.86;97240.39;1758789;81;21139;-78
2021/04/26 05:22:28;;;;;;;5.12;3.20;;;;;;;13.61;43.30;97238.78;1743432;81;21169;-78
2021/04/26 05:25:09;;;;;;;8.05;4.78;;;;;;;13.73;41.29;97242.97;1817727;77;22994;-79
2021/04/26 05:27:38;;;;;;;8.88;5.05;;;;;;;13.65;40.75;97246.31;1795406;80;21591;-78
2021/04/26 05:30:09;;;;;;;9.63;5.25;;;;;;;13.67;42.32;97250.98;1734614;81;21151;-79
2021/04/26 05:32:39;;;;;;;9.70;5.25;;;;;;;13.61;42.14;97248.87;1742530;80;21116;-84
2021/04/26 05:35:26;;;;;;;6.20;4.15;;;;;;;13.76;41.53;97257.75;1747363;81;21266;-78
2021/04/26 05:37:54;;;;;;;8.30;4.95;;;;;;;13.76;40.48;97253.27;1740382;81;21163;-79
2021/04/26 05:40:23;;;;;;;11.55;4.80;;;;;;;13.68;41.49;97261.08;1752323;81;21107;-80
2021/04/26 05:42:52;;;;;;;11.57;3.90;;;;;;;13.61;41.77;97268.73;1770783;80;21168;-78
2021/04/26 05:45:19;;;;;;;5.70;3.70;;;;;;;13.80;41.50;97260.45;1734172;81;21560;-79
2021/04/26 05:48:03;;;;;;;7.35;5.00;;;;;;;13.62;41.62;97262.97;1786622;79;21135;-78
2021/04/26 05:50:32;;;;;;;9.10;5.10;;;;;;;13.98;40.81;97270.69;1763414;80;21197;-77
2021/04/26 05:53:01;;;;;;;8.10;4.65;;;;;;;13.98;40.42;97272.02;1786631;80;21119;-83
2021/04/26 05:55:29;;;;;;;5.33;3.95;;;;;;;13.92;40.50;97280.53;1773707;81;21132;-77
2021/04/26 05:57:56;;;;;;;7.47;4.42;;;;;;;13.50;37.47;97283.45;1773788;81;21573;-77
2021/04/26 06:00:24;;;;;;;6.67;4.85;;;;;;;12.96;40.20;97286.32;1774464;80;21100;-77
2021/04/26 06:02:52;;;;;;;15.18;9.13;;;;;;;12.80;40.80;97288.16;1792389;80;21144;-77
2021/04/26 06:05:19;;;;;;;5.92;4.17;;;;;;;12.75;40.84;97285.91;1788117;80;21198;-78
2021/04/26 06:07:46;;;;;;;10.20;4.78;;;;;;;13.07;40.48;97289.38;1780599;80;21120;-77
2021/04/26 06:10:14;;;;;;;6.12;3.25;;;;;;;13.36;40.31;97286.80;1765407;80;21161;-77
2021/04/26 06:12:41;;;;;;;11.30;4.28;;;;;;;13.47;39.95;97284.54;1765605;81;21169;-77
2021/04/26 06:15:09;;;;;;;7.10;3.87;;;;;;;13.54;39.16;97288.34;1777173;80;21558;-77
2021/04/26 06:17:36;;;;;;;8.33;3.87;;;;;;;14.04;39.47;97294.00;1757747;80;21442;-77
2021/04/26 06:20:06;;;;;;;6.67;3.95;;;;;;;14.55;38.94;97302.23;1765341;81;21112;-77
2021/04/26 06:22:33;;;;;;;6.08;3.90;;;;;;;15.06;37.90;97301.46;1784190;80;21541;-77
2021/04/26 06:25:02;;;;;;;7.85;3.08;;;;;;;15.18;36.56;97302.92;1753548;81;21182;-78
2021/04/26 06:27:29;;;;;;;6.28;3.40;;;;;;;15.14;34.97;97295.75;1706688;84;21643;-77
2021/04/26 06:29:59;;;;;;;6.33;3.58;;;;;;;15.22;35.84;97299.00;1707095;84;21571;-77
2021/04/26 06:32:29;;;;;;;5.60;3.75;;;;;;;15.01;35.08;97300.58;1707301;84;21590;-77
2021/04/26 06:34:57;;;;;;;6.15;3.27;;;;;;;14.97;33.21;97297.38;1731390;81;21553;-79
2021/04/26 06:37:25;;;;;;;4.85;2.83;;;;;;;15.02;33.90;97301.39;1750591;81;21116;-79
2021/04/26 06:39:52;;;;;;;3.62;2.77;;;;;;;15.08;33.94;97300.33;1752400;82;21152;-78
2021/04/26 06:42:23;;;;;;;8.85;3.58;;;;;;;15.13;32.57;97301.21;1746274;82;21161;-78
2021/04/26 06:44:51;;;;;;;6.05;3.20;;;;;;;15.19;34.25;97307.75;1751230;82;21163;-83
2021/04/26 06:47:18;;;;;;;5.15;2.92;;;;;;;15.25;33.09;97313.32;1737302;82;21139;-78
2021/04/26 06:49:46;;;;;;;8.15;3.67;;;;;;;15.35;33.58;97308.45;1722585;82;21149;-77
2021/04/26 06:52:14;;;;;;;7.90;3.65;;;;;;;15.33;33.76;97306.43;1747223;82;21517;-78
2021/04/26 06:54:41;;;;;;;7.10;3.10;;;;;;;15.42;33.55;97314.33;1750473;81;21584;-77
2021/04/26 06:57:09;;;;;;;7.47;2.87;;;;;;;15.72;33.44;97307.52;1743085;81;21149;-79
2021/04/26 06:59:36;;;;;;;4.22;2.83;;;;;;;16.22;32.84;97308.83;1744718;82;21115;-82
2021/04/26 07:02:03;;;;;;;5.03;3.12;;;;;;;16.60;32.58;97301.95;1752751;82;21150;-78
2021/04/26 07:04:31;;;;;;;17.85;3.40;;;;;;;17.01;31.03;97307.55;1752293;82;21115;-77
2021/04/26 07:06:58;;;;;;;6.42;2.92;;;;;;;17.24;28.43;97299.83;1752485;82;21222;-77
2021/04/26 07:09:25;;;;;;;7.60;3.10;;;;;;;17.17;30.16;97311.61;1749861;81;21143;-76
2021/04/26 07:11:57;;;;;;;4.28;2.67;;;;;;;16.83;28.80;97299.59;1748821;81;21176;-78
2021/04/26 07:14:25;;;;;;;3.05;2.20;;;;;;;17.03;29.20;97303.39;1739067;81;21185;-77
2021/04/26 07:16:56;;;;;;;6.50;3.80;;;;;;;16.52;29.72;97290.27;1738473;82;21154;-77
2021/04/26 07:19:23;;;;;;;3.90;2.45;;;;;;;16.40;29.80;97302.14;1739138;82;21148;-78
2021/04/26 07:21:52;;;;;;;5.15;2.90;;;;;;;16.42;29.22;97294.84;1739253;81;21191;-78
2021/04/26 07:24:19;;;;;;;5.80;2.40;;;;;;;16.51;29.93;97298.41;1736896;80;21131;-79
2021/04/26 07:26:46;;;;;;;4.10;2.58;;;;;;;16.31;28.56;97298.60;1703331;83;21143;-78
2021/04/26 07:29:14;;;;;;;6.42;2.95;;;;;;;16.23;29.28;97302.53;1737307;82;22219;-78
2021/04/26 07:31:41;;;;;;;3.08;1.85;;;;;;;16.42;28.35;97308.15;1747964;82;21598;-78
2021/04/26 07:34:09;;;;;;;6.55;2.65;;;;;;;16.49;25.75;97310.52;1748085;82;21196;-78
2021/04/26 07:36:37;;;;;;;8.53;2.50;;;;;;;16.23;28.12;97306.02;1733600;80;21204;-79
2021/04/26 07:39:06;;;;;;;5.87;3.40;;;;;;;16.50;28.77;97308.71;1759575;80;21160;-79
2021/04/26 07:41:34;;;;;;;6.33;2.17;;;;;;;16.81;27.94;97310.41;1779036;79;21204;-78
2021/04/26 07:44:03;;;;;;;7.12;2.40;;;;;;;16.88;27.22;97309.77;1777029;79;21738;-78
2021/04/26 07:46:31;;;;;;;9.20;2.58;;;;;;;16.78;26.77;97303.23;1767917;80;21230;-78
2021/04/26 07:48:59;;;;;;;11.12;2.60;;;;;;;16.78;25.01;97312.04;1765117;80;21159;-77
2021/04/26 07:51:26;;;;;;;8.25;2.40;;;;;;;16.38;25.79;97311.61;1760319;80;21211;-77
2021/04/26 07:53:53;;;;;;;7.53;2.50;;;;;;;16.23;25.66;97308.67;1769516;80;21183;-77
2021/04/26 07:56:21;;;;;;;5.03;2.52;;;;;;;16.28;24.45;97312.70;1779848;80;21203;-78
2021/04/26 07:58:49;;;;;;;4.17;2.33;;;;;;;16.15;25.38;97312.59;1748321;80;21135;-77
2021/04/26 08:01:16;;;;;;;7.50;2.47;;;;;;;15.90;24.76;97319.03;1750403;80;21159;-77
2021/04/26 08:03:44;;;;;;;5.22;2.30;;;;;;;15.84;25.96;97323.60;1777686;80;21621;-78
2021/04/26 08:06:11;;;;;;;6.70;3.58;;;;;;;15.97;24.13;97317.09;1779892;80;21113;-79
2021/04/26 08:08:38;;;;;;;3.87;2.25;;;;;;;16.04;24.49;97326.12;1779796;80;21105;-78
2021/04/26 08:11:06;;;;;;;5.92;1.90;;;;;;;15.85;24.21;97324.45;1779980;80;21608;-78
2021/04/26 08:13:35;;;;;;;3.22;2.12;;;;;;;15.96;25.02;97328.19;1780366;80;21136;-78
2021/04/26 08:16:03;;;;;;;4.37;2.17;;;;;;;15.82;22.66;97316.74;1765149;80;21148;-78
2021/04/26 08:18:31;;;;;;;6.10;2.10;;;;;;;15.82;23.76;97312.28;1762352;81;21152;-77
2021/04/26 08:21:00;;;;;;;5.58;2.30;;;;;;;15.78;24.19;97321.52;1762271;81;21128;-78
2021/04/26 08:23:28;;;;;;;5.72;2.10;;;;;;;15.86;24.83;97322.97;1772673;80;21183;-77
2021/04/26 08:25:59;;;;;;;6.37;1.95;;;;;;;16.00;24.80;97306.16;1763695;80;21164;-77
2021/04/26 08:28:34;;;;;;;3.33;1.77;;;;;;;16.03;23.83;97312.48;1765018;80;21129;-78
2021/04/26 08:31:08;;;;;;;7.72;2.08;;;;;;;16.05;24.15;97313.98;1773159;80;21182;-77
2021/04/26 08:33:39;;;;;;;4.42;2.12;;;;;;;16.05;23.78;97307.34;1765067;80;21136;-75
2021/04/26 08:36:08;;;;;;;4.08;2.25;;;;;;;15.78;22.25;97313.05;1771846;80;21158;-79
2021/04/26 08:38:36;;;;;;;5.05;1.95;;;;;;;15.40;23.52;97305.70;1781609;80;21172;-77
2021/04/26 08:41:05;;;;;;;4.55;1.90;;;;;;;15.26;23.77;97300.87;1784790;80;21569;-76
2021/04/26 08:43:32;;;;;;;6.35;1.60;;;;;;;15.20;23.19;97310.76;1776001;80;21155;-76
2021/04/26 08:46:02;;;;;;;4.90;2.02;;;;;;;15.22;21.81;97316.26;1760938;80;21578;-82
2021/04/26 08:48:29;;;;;;;3.60;1.80;;;;;;;14.94;21.72;97307.45;1763717;80;21155;-80
2021/04/26 08:50:56;;;;;;;4.05;1.75;;;;;;;14.81;22.37;97313.91;1746430;82;21156;-82
2021/04/26 08:53:24;;;;;;;2.90;1.62;;;;;;;14.75;23.37;97309.67;1734956;83;21699;-80
2021/04/26 08:55:51;;;;;;;5.97;1.87;;;;;;;14.82;22.90;97318.72;1748710;82;21132;-79
2021/04/26 08:58:19;;;;;;;3.12;1.40;;;;;;;14.68;20.90;97342.09;1733922;83;21148;-78
2021/04/26 09:00:46;;;;;;;5.72;2.10;;;;;;;14.01;20.59;97315.47;1693146;82;21740;-84
2021/04/26 09:03:13;;;;;;;3.95;1.80;;;;;;;13.68;22.20;97326.83;1684397;82;21635;-78
2021/04/26 09:08:23;;;;;;;3.45;2.00;;;;;;;13.72;22.58;97324.73;1805842;77;23061;-77
2021/04/26 09:10:55;;;;;;;2.30;1.60;;;;;;;13.55;22.61;97332.85;1800003;78;21177;-82
2021/04/26 09:13:41;;;;;;;5.83;1.82;;;;;;;13.31;22.70;97318.14;1790911;80;21143;-81
2021/04/26 09:16:22;;;;;;;5.45;1.95;;;;;;;13.28;24.00;97315.76;1792474;80;21139;-78
2021/04/26 09:19:04;;;;;;;2.83;1.55;;;;;;;13.37;21.81;97316.27;1781347;80;21163;-77
2021/04/26 09:21:44;;;;;;;2.60;1.17;;;;;;;13.47;23.15;97311.02;1789434;80;21580;-78
2021/04/26 09:24:18;;;;;;;2.87;1.37;;;;;;;13.35;21.88;97313.42;1762989;80;21133;-78
2021/04/26 09:26:53;;;;;;;4.60;1.60;;;;;;;13.15;22.94;97304.09;1782054;80;21584;-77
2021/04/26 09:29:27;;;;;;;2.60;1.35;;;;;;;12.93;22.82;97303.30;1749268;80;21213;-77
2021/04/26 09:32:15;;;;;;;3.52;1.85;;;;;;;12.71;23.07;97299.03;1791819;80;21576;-79
2021/04/26 09:34:53;;;;;;;3.92;1.60;;;;;;;12.48;23.17;97290.42;1789734;80;21120;-79
2021/04/26 09:37:27;;;;;;;2.95;1.52;;;;;;;12.22;23.17;97286.01;1764103;81;21175;-77
2021/04/26 09:40:13;;;;;;;5.22;1.50;;;;;;;12.06;23.40;97295.23;1786544;80;21104;-76
2021/04/26 09:42:55;;;;;;;8.90;1.95;;;;;;;11.88;24.47;97282.55;1771371;80;21130;-77
2021/04/26 09:48:23;;;;;;;3.47;1.42;;;;;;;11.50;23.44;97294.94;1811447;77;23381;-77
2021/04/26 09:51:17;;;;;;;3.00;1.60;;;;;;;11.37;22.77;97279.23;1784588;78;21163;-76
2021/04/26 09:53:50;;;;;;;6.87;2.05;;;;;;;11.42;24.01;97282.36;1807588;78;21895;-76
2021/04/26 09:56:30;;;;;;;3.33;1.25;;;;;;;11.42;24.40;97278.40;1809475;78;21154;-76
2021/04/26 09:59:00;;;;;;;2.67;1.55;;;;;;;11.36;24.31;97272.30;1810097;78;21581;-76
2021/04/26 10:01:30;;;;;;;3.45;1.62;;;;;;;11.27;24.46;97273.05;1797108;78;21588;-77
2021/04/26 10:03:59;;;;;;;3.70;1.85;;;;;;;11.18;24.67;97258.78;1808205;78;21162;-76
2021/04/26 10:06:28;;;;;;;3.17;1.80;;;;;;;11.24;24.98;97261.77;1795561;78;21103;-77
2021/04/26 10:09:00;;;;;;;4.25;1.80;;;;;;;11.23;24.76;97258.77;1800862;78;21117;-77
2021/04/26 10:11:30;;;;;;;4.50;1.90;;;;;;;11.23;25.40;97252.17;1801756;78;21528;-77
2021/04/26 10:14:04;;;;;;;3.05;1.72;;;;;;;11.38;25.43;97258.02;1812866;78;21123;-75
2021/04/26 10:16:46;;;;;;;5.05;2.10;;;;;;;11.45;25.19;97250.45;1791331;78;21464;-76
2021/04/26 10:19:16;;;;;;;4.17;1.55;;;;;;;11.42;25.10;97240.13;1798169;78;22612;-73
2021/04/26 10:21:57;;;;;;;4.15;1.70;;;;;;;11.55;24.14;97255.80;1790642;80;21142;-76
2021/04/26 10:24:29;;;;;;;3.10;1.55;;;;;;;11.54;24.40;97256.30;1799110;79;21111;-75
2021/04/26 10:27:10;;;;;;;3.77;2.22;;;;;;;11.42;23.38;97250.69;1771629;81;21147;-78
2021/04/26 10:29:39;;;;;;;3.60;1.72;;;;;;;11.35;23.93;97248.19;1767142;81;21123;-76
2021/04/26 10:32:12;;;;;;;4.95;1.77;;;;;;;11.44;24.10;97251.41;1773308;81;21193;-76
2021/04/26 10:34:52;;;;;;;3.08;1.90;;;;;;;11.40;23.80;97253.92;1760539;81;21084;-77
2021/04/26 10:37:23;;;;;;;2.33;1.35;;;;;;;11.32;23.90;97247.11;1762045;81;21080;-75
2021/04/26 10:40:08;;;;;;;3.50;1.90;;;;;;;11.35;24.06;97242.42;1765762;81;21136;-76
2021/04/26 10:42:51;;;;;;;6.37;3.52;;;;;;;11.45;24.31;97230.65;1768377;81;21139;-77
2021/04/26 10:45:30;;;;;;;9.15;1.67;;;;;;;11.55;24.19;97222.30;1769766;79;21107;-76
2021/04/26 10:48:07;;;;;;;2.58;1.45;;;;;;;11.71;24.07;97223.20;1763976;80;21123;-77
2021/04/26 10:50:42;;;;;;;2.77;1.72;;;;;;;11.76;24.29;97229.42;1777222;79;21245;-77
2021/04/26 10:53:11;;;;;;;6.45;2.10;;;;;;;11.58;25.12;97221.23;1770853;79;21139;-76
2021/04/26 10:55:45;;;;;;;3.58;1.40;;;;;;;11.67;25.55;97223.12;1743738;81;21610;-77
2021/04/26 10:58:24;;;;;;;4.67;1.80;;;;;;;11.88;25.60;97217.84;1766906;79;21131;-77
2021/04/26 11:00:52;;;;;;;3.15;1.75;;;;;;;12.01;23.64;97223.45;1778852;79;21127;-76
2021/04/26 11:03:32;;;;;;;4.80;2.10;;;;;;;12.00;24.21;97212.53;1794167;79;21119;-76
2021/04/26 11:06:12;;;;;;;3.22;1.57;;;;;;;11.92;24.34;97200.43;1782159;79;21659;-76
2021/04/26 11:08:47;;;;;;;4.00;2.10;;;;;;;11.99;24.27;97198.97;1796744;79;21127;-77
2021/04/26 11:11:26;;;;;;;2.50;1.57;;;;;;;11.92;24.59;97192.50;1786609;79;21430;-76
2021/04/26 11:13:56;;;;;;;4.03;2.00;;;;;;;12.10;24.16;97188.34;1784935;78;21104;-75
2021/04/26 11:16:30;;;;;;;2.80;1.90;;;;;;;12.21;23.72;97182.59;1806446;79;21526;-76
2021/04/26 11:19:06;;;;;;;3.42;2.00;;;;;;;12.22;24.46;97186.91;1783095;79;21540;-77
2021/04/26 11:21:50;;;;;;;3.70;1.90;;;;;;;12.32;25.09;97189.98;1799132;79;21131;-78
2021/04/26 11:24:30;;;;;;;3.05;1.62;;;;;;;12.40;24.97;97184.50;1781759;79;21304;-76
2021/04/26 11:27:19;;;;;;;5.53;1.80;;;;;;;12.32;24.09;97183.37;1810799;79;21532;-76
2021/04/26 11:29:55;;;;;;;2.72;1.60;;;;;;;12.37;25.11;97186.94;1802599;79;21107;-76
2021/04/26 11:32:26;;;;;;;3.10;2.10;;;;;;;12.50;25.08;97181.42;1803982;79;21613;-76
2021/04/26 11:35:00;;;;;;;2.90;1.75;;;;;;;12.62;25.19;97176.36;1759093;79;21609;-77
2021/04/26 11:37:37;;;;;;;2.75;1.70;;;;;;;12.83;25.21;97175.95;1796440;79;21146;-77
2021/04/26 11:40:25;;;;;;;2.70;1.80;;;;;;;12.97;25.18;97168.94;1793950;79;21115;-78
2021/04/26 11:43:06;;;;;;;2.80;1.30;;;;;;;13.16;25.17;97167.30;1795661;78;21169;-75
2021/04/26 11:45:36;;;;;;;3.70;1.70;;;;;;;13.22;24.00;97155.67;1791659;78;21181;-79
2021/04/26 11:48:07;;;;;;;4.93;1.73;;;;;;;12.88;23.87;97164.47;1804155;78;21163;-75
2021/04/26 11:50:44;;;;;;;6.17;1.77;;;;;;;12.60;24.70;97155.85;1785068;80;21175;-76
2021/04/26 11:53:11;;;;;;;3.05;1.87;;;;;;;12.60;25.10;97162.93;1767291;80;21143;-75
2021/04/26 11:55:39;;;;;;;3.02;2.08;;;;;;;12.73;25.07;97159.58;1777665;79;21562;-77
2021/04/26 11:58:06;;;;;;;3.15;1.72;;;;;;;12.83;24.76;97149.50;1817246;79;21183;-76
2021/04/26 12:00:33;;;;;;;2.52;1.72;;;;;;;12.91;24.69;97147.01;1810332;79;21124;-77
2021/04/26 12:03:08;;;;;;;2.72;1.42;;;;;;;12.94;24.60;97134.84;1787330;80;21270;-75